Time;durP1;ratioP1;P1;durP2;ratioP2;P2;SDS_P1;SDS_P2;PMS_P1;PMS_P2;Temp;Humidity;BMP_temperature;BMP_pressure;BME280_temperature;BME280_humidity;BME280_pressure;Samples;Min_cycle;Max_cycle;Signal;HPM_P1;HPM_P2
2024/03/25 00:00:55;;;;;;;;;17.50;15.00;;;;;;;;6491029;39;8955;-55
2024/03/25 00:06:58;;;;;;;;;12.50;10.25;;;;;;;;6491326;39;8931;-57
2024/03/25 00:13:00;;;;;;;;;10.00;10.00;;;;;;;;6490843;39;8967;-57
2024/03/25 00:19:02;;;;;;;;;9.00;6.25;;;;;;;;6489543;46;8904;-56
2024/03/25 00:25:04;;;;;;;;;11.75;11.75;;;;;;;;6490762;39;9523;-59
2024/03/25 00:31:07;;;;;;;;;6.75;6.75;;;;;;;;6490355;39;8872;-54
2024/03/25 00:37:12;;;;;;;;;6.75;6.75;;;;;;;;6491231;31;8883;-59
2024/03/25 00:43:15;;;;;;;;;6.75;5.50;;;;;;;;6490582;31;8868;-56
2024/03/25 00:49:18;;;;;;;;;5.75;5.75;;;;;;;;6490229;39;8926;-58
2024/03/25 00:55:20;;;;;;;;;4.00;4.00;;;;;;;;6490489;39;8884;-57
2024/03/25 01:01:23;;;;;;;;;8.00;5.50;;;;;;;;6490160;46;9098;-57
2024/03/25 01:07:24;;;;;;;;;4.50;4.50;;;;;;;;6490725;39;8990;-57
2024/03/25 01:13:26;;;;;;;;;5.00;4.50;;;;;;;;6490367;39;8880;-55
2024/03/25 01:19:27;;;;;;;;;4.75;4.75;;;;;;;;6490309;46;9019;-57
2024/03/25 01:25:29;;;;;;;;;6.00;5.50;;;;;;;;6490156;46;9082;-58
2024/03/25 01:31:31;;;;;;;;;4.00;4.00;;;;;;;;6491152;31;8856;-56
2024/03/25 01:37:36;;;;;;;;;2.00;2.00;;;;;;;;6490239;31;9502;-58
2024/03/25 01:43:37;;;;;;;;;6.00;3.50;;;;;;;;6491689;46;8987;-57
2024/03/25 01:49:40;;;;;;;;;5.00;4.75;;;;;;;;6491924;46;8832;-56
2024/03/25 01:55:42;;;;;;;;;2.00;2.00;;;;;;;;6492580;39;8864;-56
2024/03/25 02:01:46;;;;;;;;;1.00;1.00;;;;;;;;6491578;46;8939;-57
2024/03/25 02:07:49;;;;;;;;;1.00;1.00;;;;;;;;6490845;31;9031;-57
2024/03/25 02:13:51;;;;;;;;;1.00;1.00;;;;;;;;6492641;31;8910;-57
2024/03/25 02:19:54;;;;;;;;;1.00;0.75;;;;;;;;6492677;39;8908;-56
2024/03/25 02:25:58;;;;;;;;;0.25;0.25;;;;;;;;6491428;46;8833;-57
2024/03/25 02:32:02;;;;;;;;;0.00;0.00;;;;;;;;6491790;46;8955;-56
2024/03/25 02:38:03;;;;;;;;;0.50;0.50;;;;;;;;6491566;39;8928;-57
2024/03/25 02:44:04;;;;;;;;;0.00;0.00;;;;;;;;6491905;39;8891;-56
2024/03/25 02:50:06;;;;;;;;;0.75;0.75;;;;;;;;6492390;39;8895;-58
2024/03/25 02:56:07;;;;;;;;;0.00;0.00;;;;;;;;6491030;46;8856;-55
2024/03/25 03:02:08;;;;;;;;;0.50;0.50;;;;;;;;6490855;46;8947;-57
2024/03/25 03:08:09;;;;;;;;;0.00;0.00;;;;;;;;6491519;39;8945;-56
2024/03/25 03:14:10;;;;;;;;;1.50;0.00;;;;;;;;6491201;46;8878;-57
2024/03/25 03:20:11;;;;;;;;;1.00;1.00;;;;;;;;6491964;39;8878;-57
2024/03/25 03:26:13;;;;;;;;;1.00;1.00;;;;;;;;6491425;39;8897;-56
2024/03/25 03:32:15;;;;;;;;;0.75;0.75;;;;;;;;6491242;39;9666;-55
2024/03/25 03:38:17;;;;;;;;;0.75;0.75;;;;;;;;6491149;39;8976;-57
2024/03/25 03:44:18;;;;;;;;;1.50;1.50;;;;;;;;6491193;39;8965;-56
2024/03/25 03:50:22;;;;;;;;;2.50;2.00;;;;;;;;6491131;46;8897;-57
2024/03/25 03:56:24;;;;;;;;;4.25;1.50;;;;;;;;6490128;39;8874;-56
2024/03/25 04:02:28;;;;;;;;;4.00;4.00;;;;;;;;6462318;39;8994;-56
2024/03/25 04:08:31;;;;;;;;;1.00;1.00;;;;;;;;6493764;39;9192;-55
2024/03/25 04:14:33;;;;;;;;;1.75;1.75;;;;;;;;6493039;39;8998;-52
2024/03/25 04:20:40;;;;;;;;;4.00;4.00;;;;;;;;6493057;39;8875;-54
2024/03/25 04:26:41;;;;;;;;;4.00;2.50;;;;;;;;6493009;39;8887;-54
2024/03/25 04:32:42;;;;;;;;;4.00;2.00;;;;;;;;6493163;39;8958;-54
2024/03/25 04:38:44;;;;;;;;;5.00;4.00;;;;;;;;6493508;39;8971;-55
2024/03/25 04:44:48;;;;;;;;;4.25;4.25;;;;;;;;6491900;31;8970;-56
2024/03/25 04:50:50;;;;;;;;;4.00;4.00;;;;;;;;6492579;46;8824;-54
2024/03/25 04:56:50;;;;;;;;;4.50;4.50;;;;;;;;6492060;39;8991;-54
2024/03/25 05:02:52;;;;;;;;;5.00;4.75;;;;;;;;6492928;39;8957;-55
2024/03/25 05:08:55;;;;;;;;;4.25;3.50;;;;;;;;6491875;39;8878;-55
2024/03/25 05:14:56;;;;;;;;;4.00;3.00;;;;;;;;6490585;46;8850;-52
2024/03/25 05:20:58;;;;;;;;;1.00;1.00;;;;;;;;6491632;46;8925;-53
2024/03/25 05:27:00;;;;;;;;;1.00;1.00;;;;;;;;6491447;39;9024;-54
2024/03/25 05:33:02;;;;;;;;;1.00;1.00;;;;;;;;6488838;39;8911;-55
2024/03/25 05:39:04;;;;;;;;;2.00;2.00;;;;;;;;6490336;47;9025;-55
2024/03/25 05:45:09;;;;;;;;;1.00;1.00;;;;;;;;6490656;39;8887;-54
2024/03/25 05:51:10;;;;;;;;;1.75;1.75;;;;;;;;6490132;39;9082;-56
2024/03/25 05:57:11;;;;;;;;;1.75;1.25;;;;;;;;6491576;39;8855;-54
2024/03/25 06:03:13;;;;;;;;;0.25;0.25;;;;;;;;6490257;31;9060;-52
2024/03/25 06:09:14;;;;;;;;;2.50;2.00;;;;;;;;6490763;39;9015;-57
2024/03/25 06:15:15;;;;;;;;;1.00;1.00;;;;;;;;6489820;47;8876;-56
2024/03/25 06:21:16;;;;;;;;;0.75;0.75;;;;;;;;6490191;47;8990;-56
2024/03/25 06:27:19;;;;;;;;;2.00;2.00;;;;;;;;6490880;39;8896;-55
2024/03/25 06:39:41;;;;;;;;;1.75;1.75;;;;;;;;6492496;39;9008;-56
2024/03/25 06:45:42;;;;;;;;;3.50;2.00;;;;;;;;6491326;39;8926;-52
2024/03/25 06:51:46;;;;;;;;;2.00;2.00;;;;;;;;6490321;39;8917;-52
2024/03/25 06:57:48;;;;;;;;;2.00;2.00;;;;;;;;6491340;31;9101;-52
2024/03/25 07:03:50;;;;;;;;;4.00;2.00;;;;;;;;6490420;39;8907;-53
2024/03/25 07:09:53;;;;;;;;;1.75;1.75;;;;;;;;6488803;46;8942;-57
2024/03/25 07:15:55;;;;;;;;;3.50;3.50;;;;;;;;6486732;39;9092;-56
2024/03/25 07:21:56;;;;;;;;;2.00;2.00;;;;;;;;6486508;31;8999;-57
2024/03/25 07:27:58;;;;;;;;;5.00;5.00;;;;;;;;6487236;39;8920;-54
2024/03/25 07:34:00;;;;;;;;;6.75;5.00;;;;;;;;6485625;39;9540;-57
2024/03/25 07:40:03;;;;;;;;;3.25;1.50;;;;;;;;6485025;39;8947;-60
2024/03/25 07:46:05;;;;;;;;;5.00;5.00;;;;;;;;6484632;46;9037;-59
2024/03/25 07:52:07;;;;;;;;;9.00;9.00;;;;;;;;6486419;39;8935;-59
2024/03/25 07:58:11;;;;;;;;;6.00;6.00;;;;;;;;6485329;39;8981;-59
2024/03/25 08:04:13;;;;;;;;;9.75;7.50;;;;;;;;6485552;39;8977;-59
2024/03/25 08:10:14;;;;;;;;;6.75;6.75;;;;;;;;6484830;46;9027;-59
2024/03/25 08:16:19;;;;;;;;;5.75;5.75;;;;;;;;6485443;31;9100;-60
2024/03/25 08:22:25;;;;;;;;;5.75;5.50;;;;;;;;6484136;31;9199;-60
2024/03/25 08:28:30;;;;;;;;;5.00;5.00;;;;;;;;6485072;39;8938;-59
2024/03/25 08:34:31;;;;;;;;;5.25;3.50;;;;;;;;6486011;46;8910;-59
2024/03/25 08:40:32;;;;;;;;;1.75;1.75;;;;;;;;6486309;39;8972;-59
2024/03/25 08:46:33;;;;;;;;;5.00;5.00;;;;;;;;6486867;39;9648;-60
2024/03/25 08:52:36;;;;;;;;;6.25;6.25;;;;;;;;6484460;46;9008;-60
2024/03/25 08:58:40;;;;;;;;;5.50;5.00;;;;;;;;6486191;46;8911;-59
2024/03/25 09:04:41;;;;;;;;;6.00;6.00;;;;;;;;6486023;39;9087;-59
2024/03/25 09:11:03;;;;;;;;;10.00;10.00;;;;;;;;6487209;46;8981;-61
2024/03/25 09:17:05;;;;;;;;;7.00;7.00;;;;;;;;6486606;31;9040;-60
2024/03/25 09:23:07;;;;;;;;;6.25;6.25;;;;;;;;6485961;46;8934;-61
2024/03/25 09:29:11;;;;;;;;;10.25;10.25;;;;;;;;6486557;39;9392;-59
2024/03/25 09:35:14;;;;;;;;;12.00;10.25;;;;;;;;6486524;46;9029;-59
2024/03/25 09:41:15;;;;;;;;;6.00;6.00;;;;;;;;6485861;39;8961;-59
2024/03/25 09:47:18;;;;;;;;;6.00;6.00;;;;;;;;6483631;39;8927;-58
2024/03/25 09:53:22;;;;;;;;;7.00;7.00;;;;;;;;6485425;39;8999;-56
2024/03/25 09:59:24;;;;;;;;;2.00;2.00;;;;;;;;6472313;31;9001;-59
2024/03/25 10:05:27;;;;;;;;;6.00;5.75;;;;;;;;6485465;46;8982;-57
2024/03/25 10:11:34;;;;;;;;;5.00;5.00;;;;;;;;6467921;46;8949;-59
2024/03/25 10:17:36;;;;;;;;;3.00;2.00;;;;;;;;6486926;39;9037;-58
2024/03/25 10:23:43;;;;;;;;;3.50;2.25;;;;;;;;6485250;39;9103;-57
2024/03/25 10:29:55;;;;;;;;;2.33;2.33;;;;;;;;6486117;31;9688;-56
2024/03/25 10:36:01;;;;;;;;;2.00;2.00;;;;;;;;6487543;31;8906;-60
2024/03/25 10:42:05;;;;;;;;;5.00;5.00;;;;;;;;6486951;46;9071;-60
2024/03/25 10:48:14;;;;;;;;;3.00;3.00;;;;;;;;6487397;39;8914;-58
2024/03/25 10:54:17;;;;;;;;;4.00;4.00;;;;;;;;6487838;39;9058;-60
2024/03/25 11:00:21;;;;;;;;;3.00;3.00;;;;;;;;6487747;39;8984;-58
2024/03/25 11:06:25;;;;;;;;;0.00;0.00;;;;;;;;6487049;46;8951;-59
2024/03/25 11:12:35;;;;;;;;;4.00;2.33;;;;;;;;6487181;39;9519;-55
2024/03/25 11:18:37;;;;;;;;;3.00;2.00;;;;;;;;6485765;39;8950;-61
2024/03/25 11:24:45;;;;;;;;;4.67;4.67;;;;;;;;6486868;39;8926;-56
2024/03/25 11:30:48;;;;;;;;;7.00;7.00;;;;;;;;6488731;39;8934;-58
2024/03/25 11:36:56;;;;;;;;;10.33;9.67;;;;;;;;6486713;39;8927;-57
2024/03/25 11:42:59;;;;;;;;;3.33;3.33;;;;;;;;6487288;39;8993;-55
2024/03/25 11:49:02;;;;;;;;;4.33;4.33;;;;;;;;6486640;39;9013;-58
2024/03/25 11:55:09;;;;;;;;;4.33;4.33;;;;;;;;6486659;39;8903;-59
2024/03/25 12:01:13;;;;;;;;;5.67;5.67;;;;;;;;6485586;39;9015;-60
2024/03/25 12:07:19;;;;;;;;;2.00;2.00;;;;;;;;6484907;31;9153;-56
2024/03/25 12:13:22;;;;;;;;;6.00;5.00;;;;;;;;6094365;36;9999915;-56
2024/03/25 12:19:30;;;;;;;;;3.75;3.75;;;;;;;;6487386;46;9047;-56
2024/03/25 12:25:40;;;;;;;;;6.00;6.00;;;;;;;;6527405;31;9614;-60
2024/03/25 12:31:42;;;;;;;;;5.50;5.50;;;;;;;;6487409;31;8912;-58
2024/03/25 12:37:46;;;;;;;;;10.00;8.00;;;;;;;;6486274;39;8911;-58
2024/03/25 12:43:50;;;;;;;;;7.00;6.00;;;;;;;;6486720;39;9007;-58
2024/03/25 12:49:55;;;;;;;;;4.00;4.00;;;;;;;;6485434;46;8955;-57
2024/03/25 12:55:59;;;;;;;;;3.33;3.33;;;;;;;;6486004;46;8897;-58
2024/03/25 13:02:02;;;;;;;;;19.50;15.50;;;;;;;;6485485;39;8984;-57
2024/03/25 13:08:06;;;;;;;;;5.50;3.25;;;;;;;;6483574;39;9658;-55
2024/03/25 13:14:07;;;;;;;;;3.50;3.50;;;;;;;;6483225;39;9070;-58
2024/03/25 13:20:11;;;;;;;;;6.00;6.00;;;;;;;;6483090;31;8997;-57
2024/03/25 13:26:15;;;;;;;;;3.50;3.50;;;;;;;;6483354;39;9063;-58
2024/03/25 13:32:22;;;;;;;;;1.75;1.75;;;;;;;;6484542;39;9049;-58
2024/03/25 13:38:26;;;;;;;;;6.00;3.25;;;;;;;;6484361;46;8984;-56
2024/03/25 13:44:28;;;;;;;;;6.00;6.00;;;;;;;;6486227;39;9063;-56
2024/03/25 13:50:29;;;;;;;;;2.67;2.67;;;;;;;;6485791;39;8924;-56
2024/03/25 13:56:34;;;;;;;;;3.00;2.50;;;;;;;;6486474;39;8996;-57
2024/03/25 14:02:39;;;;;;;;;4.33;3.00;;;;;;;;6485181;39;9149;-57
2024/03/25 14:08:42;;;;;;;;;3.00;3.00;;;;;;;;6483575;47;8946;-55
2024/03/25 14:14:44;;;;;;;;;4.00;4.00;;;;;;;;6484602;39;8908;-56
2024/03/25 14:20:47;;;;;;;;;3.75;3.75;;;;;;;;6486340;39;8939;-57
2024/03/25 14:26:49;;;;;;;;;2.00;2.00;;;;;;;;6484563;39;9000;-56
2024/03/25 14:32:50;;;;;;;;;3.00;3.00;;;;;;;;6470639;31;8955;-57
2024/03/25 14:38:51;;;;;;;;;10.50;10.50;;;;;;;;6484543;47;8964;-58
2024/03/25 14:44:54;;;;;;;;;8.67;6.00;;;;;;;;6486601;39;8921;-56
2024/03/25 14:51:00;;;;;;;;;17.00;16.25;;;;;;;;6487724;39;8932;-56
2024/03/25 14:57:01;;;;;;;;;7.67;7.00;;;;;;;;6489153;46;8836;-58
2024/03/25 15:03:03;;;;;;;;;6.50;6.50;;;;;;;;6490303;46;8980;-54
2024/03/25 15:09:04;;;;;;;;;6.25;5.00;;;;;;;;6490877;39;8947;-54
2024/03/25 15:15:08;;;;;;;;;7.00;6.50;;;;;;;;6490828;39;8872;-53
2024/03/25 15:21:10;;;;;;;;;6.75;6.75;;;;;;;;6490687;39;9032;-53
2024/03/25 15:27:12;;;;;;;;;10.50;8.00;;;;;;;;6490297;39;8983;-56
2024/03/25 15:33:14;;;;;;;;;5.00;5.00;;;;;;;;6491176;39;8840;-56
2024/03/25 15:39:16;;;;;;;;;6.00;5.25;;;;;;;;6489541;46;8896;-52
2024/03/25 15:45:17;;;;;;;;;5.75;4.75;;;;;;;;6490773;39;8911;-56
2024/03/25 15:51:19;;;;;;;;;7.00;7.00;;;;;;;;6490855;39;8891;-53
2024/03/25 15:57:21;;;;;;;;;7.25;6.50;;;;;;;;6490987;31;9037;-55
2024/03/25 16:03:27;;;;;;;;;8.00;8.00;;;;;;;;6489300;46;8977;-56
2024/03/25 16:09:31;;;;;;;;;7.00;7.00;;;;;;;;6490118;46;8955;-54
2024/03/25 16:15:32;;;;;;;;;7.25;6.50;;;;;;;;6490346;46;8880;-57
2024/03/25 16:21:35;;;;;;;;;6.00;6.00;;;;;;;;6489931;46;9084;-56
2024/03/25 16:27:37;;;;;;;;;6.75;6.50;;;;;;;;6490243;39;8868;-56
2024/03/25 16:33:40;;;;;;;;;10.25;7.75;;;;;;;;6308666;46;10001594;-57
2024/03/25 16:39:43;;;;;;;;;10.50;10.50;;;;;;;;6489896;39;10671;-56
2024/03/25 16:45:45;;;;;;;;;7.75;7.75;;;;;;;;6490147;39;9645;-58
2024/03/25 16:51:47;;;;;;;;;10.00;10.00;;;;;;;;6494097;36;125931;-55
2024/03/25 16:57:49;;;;;;;;;11.00;10.00;;;;;;;;6489833;31;8868;-59
2024/03/25 17:03:50;;;;;;;;;8.25;8.25;;;;;;;;6489874;39;9555;-56
2024/03/25 17:09:51;;;;;;;;;13.50;13.50;;;;;;;;6490154;39;9014;-57
2024/03/25 17:15:54;;;;;;;;;12.33;11.00;;;;;;;;6489754;39;9007;-56
2024/03/25 17:21:58;;;;;;;;;14.75;14.75;;;;;;;;6488201;39;8907;-57
2024/03/25 17:28:01;;;;;;;;;28.25;27.00;;;;;;;;6489999;39;8937;-53
2024/03/25 17:34:03;;;;;;;;;11.00;11.00;;;;;;;;6489472;39;9044;-55
2024/03/25 17:40:10;;;;;;;;;14.00;14.00;;;;;;;;6489151;39;8908;-54
2024/03/25 17:46:11;;;;;;;;;15.00;15.00;;;;;;;;6490046;39;8876;-56
2024/03/25 17:52:13;;;;;;;;;12.25;12.25;;;;;;;;6489618;39;8880;-54
2024/03/25 17:58:15;;;;;;;;;14.00;13.50;;;;;;;;6489478;39;9533;-57
2024/03/25 18:04:18;;;;;;;;;12.00;12.00;;;;;;;;6489410;39;8920;-55
2024/03/25 18:10:21;;;;;;;;;13.50;13.50;;;;;;;;6419398;36;5001239;-54
2024/03/25 18:16:22;;;;;;;;;8.50;8.50;;;;;;;;6487916;31;8913;-55
2024/03/25 18:22:24;;;;;;;;;11.75;11.50;;;;;;;;6487969;39;9056;-54
2024/03/25 18:28:25;;;;;;;;;10.25;9.25;;;;;;;;6491306;39;8941;-54
2024/03/25 18:34:27;;;;;;;;;11.50;10.25;;;;;;;;6490526;39;9676;-58
2024/03/25 18:40:28;;;;;;;;;7.25;7.00;;;;;;;;6490566;39;9031;-56
2024/03/25 18:46:31;;;;;;;;;10.00;7.00;;;;;;;;6490535;39;9637;-55
2024/03/25 18:52:37;;;;;;;;;6.75;6.25;;;;;;;;6490148;39;8861;-55
2024/03/25 18:58:40;;;;;;;;;8.25;6.75;;;;;;;;6490503;39;8996;-53
2024/03/25 19:04:43;;;;;;;;;18.25;14.50;;;;;;;;6490441;39;8977;-54
2024/03/25 19:10:44;;;;;;;;;17.00;15.75;;;;;;;;6490061;46;8912;-54
2024/03/25 19:16:48;;;;;;;;;14.50;14.50;;;;;;;;6489360;46;8963;-55
2024/03/25 19:22:50;;;;;;;;;8.25;7.50;;;;;;;;6489190;39;8956;-56
2024/03/25 19:28:51;;;;;;;;;10.25;10.25;;;;;;;;6489585;46;8905;-56
2024/03/25 19:34:52;;;;;;;;;15.75;12.50;;;;;;;;6490139;39;9055;-57
2024/03/25 19:40:54;;;;;;;;;13.00;13.00;;;;;;;;6489670;39;9036;-55
2024/03/25 19:46:57;;;;;;;;;13.75;12.75;;;;;;;;6490572;39;8936;-58
2024/03/25 19:52:59;;;;;;;;;19.00;16.25;;;;;;;;6490418;39;8857;-55
2024/03/25 19:59:02;;;;;;;;;10.25;9.50;;;;;;;;6491032;39;9040;-56
2024/03/25 20:05:04;;;;;;;;;17.75;16.00;;;;;;;;6489715;46;9111;-55
2024/03/25 20:11:05;;;;;;;;;19.00;16.00;;;;;;;;6490095;39;8959;-55
2024/03/25 20:17:06;;;;;;;;;19.25;18.00;;;;;;;;6489950;39;8907;-57
2024/03/25 20:23:07;;;;;;;;;20.50;17.00;;;;;;;;6488672;31;8960;-54
2024/03/25 20:29:09;;;;;;;;;15.75;13.00;;;;;;;;6489865;39;8983;-56
2024/03/25 20:35:12;;;;;;;;;18.25;17.00;;;;;;;;6489767;39;8885;-56
2024/03/25 20:41:18;;;;;;;;;14.25;14.25;;;;;;;;6489391;31;8953;-53
2024/03/25 20:47:22;;;;;;;;;17.00;15.25;;;;;;;;6489539;31;8861;-54
2024/03/25 20:53:23;;;;;;;;;11.00;11.00;;;;;;;;6489588;39;8901;-53
2024/03/25 20:59:26;;;;;;;;;13.75;12.50;;;;;;;;6489330;46;9003;-57
2024/03/25 21:05:28;;;;;;;;;14.50;14.50;;;;;;;;6489841;31;9749;-56
2024/03/25 21:11:31;;;;;;;;;10.50;10.50;;;;;;;;6488875;31;9071;-52
2024/03/25 21:17:34;;;;;;;;;11.25;11.25;;;;;;;;6490718;39;9579;-57
2024/03/25 21:23:36;;;;;;;;;10.00;10.00;;;;;;;;6488602;39;9673;-55
2024/03/25 21:29:39;;;;;;;;;15.50;13.25;;;;;;;;6489197;39;8889;-55
2024/03/25 21:35:40;;;;;;;;;11.25;11.25;;;;;;;;6488567;46;8895;-55
2024/03/25 21:41:44;;;;;;;;;9.75;9.75;;;;;;;;6488614;47;9012;-56
2024/03/25 21:47:47;;;;;;;;;12.25;11.00;;;;;;;;6489753;31;9631;-54
2024/03/25 21:53:50;;;;;;;;;9.50;9.50;;;;;;;;6488947;39;10157;-53
2024/03/25 21:59:54;;;;;;;;;10.25;9.75;;;;;;;;6490966;31;9005;-56
2024/03/25 22:05:55;;;;;;;;;9.75;9.25;;;;;;;;6490681;31;9095;-55
2024/03/25 22:11:57;;;;;;;;;13.50;11.00;;;;;;;;6491089;39;9634;-55
2024/03/25 22:18:02;;;;;;;;;13.00;11.25;;;;;;;;6490456;31;8859;-56
2024/03/25 22:24:04;;;;;;;;;13.75;13.25;;;;;;;;6490034;31;9028;-55
2024/03/25 22:30:06;;;;;;;;;13.50;13.50;;;;;;;;6491154;31;8917;-56
2024/03/25 22:36:09;;;;;;;;;17.00;14.00;;;;;;;;6490612;46;8900;-52
2024/03/25 22:42:13;;;;;;;;;15.75;13.00;;;;;;;;6490553;39;9023;-55
2024/03/25 22:48:14;;;;;;;;;14.00;12.50;;;;;;;;6490824;46;8892;-56
2024/03/25 22:54:16;;;;;;;;;16.00;14.50;;;;;;;;6489716;39;9032;-52
2024/03/25 23:00:17;;;;;;;;;14.25;14.25;;;;;;;;6490429;31;8885;-54
2024/03/25 23:06:18;;;;;;;;;12.75;12.75;;;;;;;;6489597;46;9127;-55
2024/03/25 23:12:22;;;;;;;;;15.00;15.00;;;;;;;;6489414;39;8900;-53
2024/03/25 23:18:23;;;;;;;;;17.25;17.00;;;;;;;;6490001;39;8881;-55
2024/03/25 23:24:25;;;;;;;;;19.50;17.50;;;;;;;;6490549;39;8935;-53
2024/03/25 23:30:29;;;;;;;;;12.25;12.25;;;;;;;;6489545;46;8963;-54
2024/03/25 23:36:30;;;;;;;;;23.25;20.25;;;;;;;;6489529;39;8976;-52
2024/03/25 23:42:31;;;;;;;;;20.25;19.00;;;;;;;;6489883;39;9011;-55
2024/03/25 23:48:34;;;;;;;;;16.00;15.75;;;;;;;;6489490;46;8917;-53
2024/03/25 23:54:35;;;;;;;;;22.75;20.50;;;;;;;;6491311;31;9003;-55
